GMFK

Details ICAO GMFK (ERH)
Name MOULAY ALI CHERIF
Region Morocco
Timezone Africa/Casablanca (UTC+1.0)
Plans Departing 16
Arriving 24
Stats Elevation 3,428 ft / 1,045 m (AMSL)
Location 31.948252° -4.400956°
Runways 1
Magnetic Variation 0.868° W
Sunrise 2018-06-25 05:14:22 UTC / 2018-06-25 06:14:22 Local
Sunset 2018-06-25 19:28:28 UTC / 2018-06-25 20:28:28 Local
Advertisement - Login to hide

Runways

ID Width Length Bearing (true) Bearing (mag) Surface Threshold Offset Overrun Length
13 148 ft / 45 m 10,576 ft / 3,224 m 125.08° 125.95° Asphalt 0 ft / 0 m 0 ft / 0 m
31 148 ft / 45 m 10,576 ft / 3,224 m 305.10° 305.97° Asphalt 0 ft / 0 m 0 ft / 0 m

Map

Weather


0- 5 10 15 20 25 30 35+ Temperature / ° C

Clouds and Precipitation
Forecast for 2018-06-25 18:00 UTC. Updated 13 minutes ago

Ground ~20,000 ft ~40,000 ft Winds

METAR

GMFK 251500Z 22004KT CAVOK 38/M15 Q1017 NOSIG

TAF

Not found

Frequencies

Tower 122.70 MHz ERRACHIDIA TWR
Warning: Do not use this data for real-world aviation or navigation. No guarantee of current accuracy is given.